createdAt,value
2018-09-03T00:03:57.679Z,10.60
2018-09-03T00:13:59.042Z,10.83
2018-09-03T00:24:00.320Z,10.67
2018-09-03T00:34:02.378Z,12.30
2018-09-03T00:44:03.636Z,10.57
2018-09-03T00:54:04.912Z,13.33
2018-09-03T01:04:07.090Z,13.27
2018-09-03T01:14:08.323Z,13.40
2018-09-03T01:24:10.338Z,13.60
2018-09-03T01:34:11.583Z,13.80
2018-09-03T01:44:12.830Z,12.07
2018-09-03T01:54:14.084Z,12.70
2018-09-03T02:04:15.486Z,12.27
2018-09-03T02:14:16.784Z,12.93
2018-09-03T02:24:18.044Z,12.10
2018-09-03T02:34:19.300Z,12.60
2018-09-03T02:44:21.358Z,12.53
2018-09-03T02:54:22.633Z,13.97
2018-09-03T03:04:23.879Z,13.07
2018-09-03T03:14:25.125Z,12.63
2018-09-03T03:24:26.410Z,12.87
2018-09-03T03:34:27.665Z,13.83
2018-09-03T03:44:28.918Z,14.00
2018-09-03T03:54:30.182Z,12.70
2018-09-03T04:04:32.391Z,13.50
2018-09-03T04:14:34.441Z,14.27
2018-09-03T04:24:35.863Z,16.33
2018-09-03T04:34:37.127Z,15.23
2018-09-03T04:44:38.442Z,14.67
2018-09-03T04:54:39.709Z,15.03
2018-09-03T05:04:40.982Z,16.33
2018-09-03T05:14:42.253Z,14.87
2018-09-03T05:24:43.496Z,14.83
2018-09-03T05:34:44.750Z,15.47
2018-09-03T05:44:46.019Z,12.07
2018-09-03T05:54:47.298Z,10.90
2018-09-03T06:04:48.657Z,11.47
2018-09-03T06:14:50.690Z,11.90
2018-09-03T06:24:52.124Z,11.97
2018-09-03T06:34:54.171Z,11.20
2018-09-03T06:44:55.706Z,10.57
2018-09-03T06:54:57.124Z,10.07
2018-09-03T07:04:58.449Z,10.60
2018-09-03T07:14:59.698Z,10.13
2018-09-03T07:25:01.734Z,10.43
2018-09-03T07:35:02.974Z,10.40
2018-09-03T07:45:05.485Z,10.10
2018-09-03T07:55:06.780Z,8.43
2018-09-03T08:05:08.183Z,7.80
2018-09-03T08:15:09.451Z,7.77
2018-09-03T08:25:10.888Z,7.13
2018-09-03T08:35:15.363Z,8.60
2018-09-03T08:45:16.602Z,6.93
2018-09-03T08:55:18.039Z,6.77
2018-09-03T09:05:19.278Z,7.32
2018-09-03T09:15:22.411Z,7.40
2018-09-03T09:25:23.667Z,6.43
2018-09-03T09:45:31.609Z,5.77
2018-09-03T09:55:32.885Z,5.70
2018-09-03T10:05:34.156Z,4.82
2018-09-03T10:15:35.444Z,3.45
2018-09-03T10:25:36.726Z,4.60
2018-09-03T10:35:37.967Z,5.25
2018-09-03T10:45:39.218Z,4.83
2018-09-03T10:55:40.452Z,5.63
2018-09-03T11:05:41.691Z,5.87
2018-09-03T11:15:42.982Z,5.97
2018-09-03T11:25:44.285Z,6.00
2018-09-03T11:35:48.420Z,5.78
2018-09-03T11:45:49.714Z,5.47
2018-09-03T11:55:51.121Z,6.03
2018-09-03T12:05:52.411Z,5.72
2018-09-03T12:15:53.670Z,5.47
2018-09-03T12:25:54.926Z,5.50
2018-09-03T12:35:56.925Z,4.95
2018-09-03T12:45:58.158Z,5.95
2018-09-03T12:56:00.532Z,5.90
2018-09-03T13:06:01.802Z,6.07
2018-09-03T13:16:03.101Z,6.85
2018-09-03T13:26:04.383Z,6.67
2018-09-03T13:36:06.605Z,5.27
2018-09-03T13:56:15.652Z,7.50
2018-09-03T14:06:17.101Z,7.10
2018-09-03T14:16:19.309Z,8.23
2018-09-03T14:26:20.732Z,7.43
2018-09-03T14:36:22.732Z,8.17
2018-09-03T14:46:24.808Z,7.37
2018-09-03T14:56:26.072Z,6.70
2018-09-03T15:06:27.326Z,6.83
2018-09-03T15:16:28.598Z,6.30
2018-09-03T15:26:29.945Z,6.00
2018-09-03T15:36:32.168Z,7.77
2018-09-03T15:46:33.646Z,7.43
2018-09-03T15:56:35.895Z,9.07
2018-09-03T16:06:37.159Z,9.10
2018-09-03T16:16:39.214Z,9.13
2018-09-03T16:26:40.483Z,9.63
2018-09-03T16:36:41.770Z,9.07
2018-09-03T16:46:47.880Z,9.63
2018-09-03T16:56:49.145Z,9.83
2018-09-03T17:06:51.191Z,8.93
2018-09-03T17:16:52.450Z,9.20
2018-09-03T17:26:54.537Z,9.70
2018-09-03T17:36:55.955Z,10.67
2018-09-03T17:46:57.250Z,10.63
2018-09-03T17:56:58.529Z,12.17
2018-09-03T18:06:59.800Z,11.67
2018-09-03T18:17:01.098Z,10.87
2018-09-03T18:27:02.389Z,11.23
2018-09-03T18:37:03.653Z,11.07
2018-09-03T18:47:05.146Z,11.27
2018-09-03T18:57:06.423Z,12.13
2018-09-03T19:07:07.663Z,12.13
2018-09-03T19:17:08.918Z,12.40
2018-09-03T19:27:10.948Z,12.10
2018-09-03T19:37:12.443Z,12.30
2018-09-03T19:47:14.474Z,12.07
2018-09-03T19:57:15.760Z,13.07
2018-09-03T20:07:17.052Z,13.77
2018-09-03T20:17:18.436Z,12.63
2018-09-03T20:27:19.740Z,13.77
2018-09-03T20:37:20.991Z,13.80
2018-09-03T20:47:22.306Z,14.13
2018-09-03T20:57:23.565Z,11.97
2018-09-03T21:07:24.806Z,12.40
2018-09-03T21:17:26.073Z,13.53
2018-09-03T21:27:27.612Z,13.07
2018-09-03T21:37:29.084Z,13.40
2018-09-03T21:47:31.168Z,12.87
2018-09-03T21:57:33.361Z,12.13
2018-09-03T22:07:34.643Z,11.70
2018-09-03T22:17:36.108Z,10.67
2018-09-03T22:27:37.386Z,12.90
2018-09-03T22:37:38.633Z,12.80
2018-09-03T22:47:39.873Z,11.57
2018-09-03T22:57:41.914Z,12.33
2018-09-03T23:07:43.189Z,12.33
2018-09-03T23:17:44.624Z,10.87
2018-09-03T23:27:46.061Z,11.93
2018-09-03T23:37:48.103Z,11.07
2018-09-03T23:47:49.395Z,10.83
2018-09-03T23:57:50.666Z,11.13
